Time;durP1;ratioP1;P1;durP2;ratioP2;P2;SDS_P1;SDS_P2;PMS_P1;PMS_P2;Temp;Humidity;BMP_temperature;BMP_pressure;BME280_temperature;BME280_humidity;BME280_pressure;Samples;Min_cycle;Max_cycle;Signal;HPM_P1;HPM_P2
2021/05/14 00:01:05;;;;;;;1.13;1.03;;;15.40;74.90;;;;;;6299033;28;20458;-61
2021/05/14 00:04:08;;;;;;;1.40;1.30;;;15.40;75.10;;;;;;6299505;28;20473;-61
2021/05/14 00:07:10;;;;;;;1.40;1.30;;;15.40;75.40;;;;;;6299649;28;20493;-61
2021/05/14 00:10:19;;;;;;;1.37;1.27;;;15.30;74.90;;;;;;6299423;28;20972;-61
2021/05/14 00:13:23;;;;;;;1.00;0.97;;;15.30;74.70;;;;;;6299039;28;20483;-62
2021/05/14 00:16:26;;;;;;;1.43;0.70;;;15.30;74.80;;;;;;6299395;28;20511;-62
2021/05/14 00:19:29;;;;;;;0.70;0.70;;;15.30;74.80;;;;;;6299230;28;20469;-61
2021/05/14 00:22:32;;;;;;;0.70;0.60;;;15.30;74.80;;;;;;6299081;28;20477;-62
2021/05/14 00:26:30;;;;;;;1.27;0.60;;;15.30;74.80;;;;;;6299304;28;20587;-62
2021/05/14 00:29:33;;;;;;;0.90;0.70;;;15.20;74.70;;;;;;6298944;28;20480;-61
2021/05/14 00:32:37;;;;;;;3.10;0.80;;;15.10;75.10;;;;;;6299189;28;20472;-61
2021/05/14 00:35:40;;;;;;;0.50;0.50;;;15.20;75.50;;;;;;6298915;28;20480;-61
2021/05/14 00:38:43;;;;;;;0.73;0.70;;;15.10;75.10;;;;;;6298931;28;20472;-61
2021/05/14 00:41:45;;;;;;;1.10;0.67;;;15.10;75.10;;;;;;6298908;28;20546;-61
2021/05/14 00:44:49;;;;;;;0.87;0.87;;;15.00;75.10;;;;;;6298740;28;20476;-62
2021/05/14 00:47:52;;;;;;;0.70;0.63;;;15.00;75.00;;;;;;6298704;28;20968;-59
2021/05/14 00:50:55;;;;;;;1.30;0.70;;;15.00;74.80;;;;;;6302774;28;20471;-59
2021/05/14 00:53:58;;;;;;;1.90;1.10;;;15.00;74.90;;;;;;6303718;28;20793;-59
2021/05/14 00:57:01;;;;;;;0.83;0.83;;;15.00;74.90;;;;;;6303736;28;20571;-60
2021/05/14 01:00:05;;;;;;;0.70;0.50;;;15.00;75.20;;;;;;6303523;28;20477;-61
2021/05/14 01:03:13;;;;;;;0.80;0.80;;;15.00;75.80;;;;;;6303185;28;20476;-61
2021/05/14 01:06:16;;;;;;;0.83;0.77;;;15.00;75.60;;;;;;6303539;28;20793;-60
2021/05/14 01:09:19;;;;;;;0.90;0.90;;;15.00;76.30;;;;;;6303166;28;20471;-60
2021/05/14 01:12:21;;;;;;;1.00;0.80;;;15.00;76.50;;;;;;6303036;28;20477;-61
2021/05/14 01:15:24;;;;;;;1.30;1.20;;;15.00;76.40;;;;;;6303026;28;20469;-60
2021/05/14 01:18:28;;;;;;;1.23;1.13;;;14.90;77.00;;;;;;6303204;28;20463;-64
2021/05/14 01:21:32;;;;;;;1.87;1.43;;;14.90;77.60;;;;;;6302640;28;20488;-60
2021/05/14 01:24:35;;;;;;;1.23;1.13;;;15.00;78.30;;;;;;6303224;28;20445;-61
2021/05/14 01:27:37;;;;;;;0.60;0.60;;;14.90;78.50;;;;;;6303139;28;20448;-60
2021/05/14 01:30:40;;;;;;;0.60;0.40;;;14.90;78.80;;;;;;6302520;28;20545;-60
2021/05/14 01:33:44;;;;;;;0.80;0.70;;;14.90;79.30;;;;;;6303157;28;20452;-60
2021/05/14 01:36:48;;;;;;;0.83;0.70;;;14.90;79.70;;;;;;6298027;28;20448;-60
2021/05/14 01:39:50;;;;;;;0.80;0.80;;;14.90;81.20;;;;;;6302845;28;20465;-60
2021/05/14 01:42:53;;;;;;;2.00;0.93;;;14.80;80.40;;;;;;6302534;28;20476;-60
2021/05/14 01:45:55;;;;;;;0.80;0.80;;;14.70;80.80;;;;;;6301668;28;20476;-60
2021/05/14 01:48:58;;;;;;;1.03;0.70;;;14.70;81.20;;;;;;6302483;28;20782;-60
2021/05/14 01:52:02;;;;;;;1.20;0.60;;;14.70;82.30;;;;;;6302478;28;20480;-60
2021/05/14 01:55:06;;;;;;;0.60;0.60;;;14.70;82.70;;;;;;6301462;28;20461;-59
2021/05/14 01:58:08;;;;;;;1.13;0.60;;;14.60;82.00;;;;;;6302225;28;20955;-59
2021/05/14 02:01:11;;;;;;;1.13;0.70;;;14.60;82.00;;;;;;6301153;28;20990;-59
2021/05/14 02:04:14;;;;;;;0.90;0.50;;;14.50;82.30;;;;;;6302362;28;20472;-60
2021/05/14 02:07:17;;;;;;;0.93;0.93;;;14.40;82.50;;;;;;6302225;28;20484;-59
2021/05/14 02:10:20;;;;;;;1.90;0.97;;;14.40;82.50;;;;;;6302225;28;20622;-59
2021/05/14 02:13:23;;;;;;;0.80;0.70;;;14.40;82.40;;;;;;6301507;28;20495;-59
2021/05/14 02:16:26;;;;;;;0.80;0.80;;;14.50;82.80;;;;;;6301036;28;20469;-59
2021/05/14 02:19:29;;;;;;;1.10;0.90;;;14.40;82.90;;;;;;6301193;28;20796;-59
2021/05/14 02:22:32;;;;;;;2.00;0.90;;;14.40;83.20;;;;;;6301412;28;20480;-60
2021/05/14 02:25:35;;;;;;;1.17;1.07;;;14.40;83.40;;;;;;6301449;28;20800;-59
2021/05/14 02:28:38;;;;;;;0.80;0.80;;;14.40;84.50;;;;;;6301143;28;20475;-59
2021/05/14 02:31:40;;;;;;;0.60;0.60;;;14.40;84.60;;;;;;6301452;28;20495;-59
2021/05/14 02:34:43;;;;;;;0.80;0.80;;;14.40;84.90;;;;;;6301658;28;20559;-59
2021/05/14 02:37:47;;;;;;;0.90;0.80;;;14.40;85.40;;;;;;6301348;28;20943;-59
2021/05/14 02:40:50;;;;;;;0.80;0.77;;;14.40;85.40;;;;;;6300769;28;20469;-59
2021/05/14 02:43:52;;;;;;;2.20;0.80;;;14.40;85.90;;;;;;6287042;28;20477;-59
2021/05/14 02:46:55;;;;;;;1.37;0.70;;;14.40;86.10;;;;;;6301151;28;20472;-59
2021/05/14 02:49:58;;;;;;;0.70;0.60;;;14.40;86.10;;;;;;6300753;28;20473;-59
2021/05/14 02:53:01;;;;;;;0.70;0.70;;;14.40;86.80;;;;;;6300819;28;20947;-59
2021/05/14 02:56:04;;;;;;;0.73;0.73;;;14.30;86.90;;;;;;6301027;28;20469;-59
2021/05/14 02:59:06;;;;;;;1.10;1.03;;;14.40;86.80;;;;;;6300764;28;20479;-59
2021/05/14 03:02:09;;;;;;;1.00;0.90;;;14.30;86.80;;;;;;6300344;28;20476;-59
2021/05/14 03:05:12;;;;;;;4.00;0.87;;;14.30;87.40;;;;;;6300708;28;20465;-59
2021/05/14 03:08:16;;;;;;;1.73;0.70;;;14.30;88.10;;;;;;6300552;28;20960;-60
2021/05/14 03:11:19;;;;;;;1.80;0.83;;;14.30;88.20;;;;;;6300110;28;20497;-59
2021/05/14 03:14:22;;;;;;;1.03;0.90;;;14.30;88.40;;;;;;6299432;28;20475;-59
2021/05/14 03:17:24;;;;;;;1.00;0.70;;;14.30;88.60;;;;;;6300184;28;20473;-59
2021/05/14 03:20:27;;;;;;;0.93;0.70;;;14.30;89.20;;;;;;6300121;28;20483;-59
2021/05/14 03:23:31;;;;;;;1.63;0.70;;;14.30;89.40;;;;;;6300216;28;20469;-59
2021/05/14 03:26:34;;;;;;;1.10;0.80;;;14.30;89.50;;;;;;6300085;28;20991;-59
2021/05/14 03:29:36;;;;;;;0.70;0.70;;;14.30;90.00;;;;;;6299814;28;20469;-59
2021/05/14 03:32:39;;;;;;;0.90;0.70;;;14.30;90.20;;;;;;6300043;28;20472;-59
2021/05/14 03:35:42;;;;;;;0.70;0.70;;;14.20;90.40;;;;;;6299960;28;20476;-59
2021/05/14 03:38:45;;;;;;;0.97;0.87;;;14.20;90.60;;;;;;6299842;28;20484;-60
2021/05/14 03:41:49;;;;;;;0.80;0.80;;;14.20;90.90;;;;;;6299709;28;20527;-59
2021/05/14 03:44:56;;;;;;;1.00;0.70;;;14.20;91.20;;;;;;6299575;28;20508;-59
2021/05/14 03:47:59;;;;;;;1.60;1.00;;;14.20;91.40;;;;;;6290117;28;20559;-59
2021/05/14 03:51:01;;;;;;;0.83;0.67;;;14.20;91.80;;;;;;6299394;28;20469;-60
2021/05/14 03:54:06;;;;;;;0.70;0.70;;;14.20;91.70;;;;;;6299408;28;20818;-59
2021/05/14 03:57:09;;;;;;;1.90;0.90;;;14.20;91.80;;;;;;6299426;28;20483;-59
2021/05/14 04:00:13;;;;;;;3.27;1.20;;;14.10;91.90;;;;;;6299480;28;20481;-59
2021/05/14 04:03:16;;;;;;;0.90;0.90;;;14.00;92.10;;;;;;6299531;28;20811;-59
2021/05/14 04:06:18;;;;;;;1.30;0.67;;;14.00;92.00;;;;;;6299222;28;20801;-59
2021/05/14 04:09:27;;;;;;;1.80;1.00;;;14.00;92.10;;;;;;6299248;28;20491;-59
2021/05/14 04:15:53;;;;;;;1.97;1.30;;;14.10;92.40;;;;;;6299051;28;20505;-59
2021/05/14 04:18:55;;;;;;;1.40;1.03;;;14.10;92.30;;;;;;6299196;28;20479;-59
2021/05/14 04:22:00;;;;;;;2.57;1.03;;;14.10;92.40;;;;;;6299202;28;20465;-59
2021/05/14 04:25:05;;;;;;;1.10;1.00;;;14.20;92.60;;;;;;6299726;28;20471;-59
2021/05/14 04:28:07;;;;;;;1.80;0.83;;;14.20;92.40;;;;;;6299139;28;20477;-59
2021/05/14 04:31:10;;;;;;;1.60;0.80;;;14.20;92.50;;;;;;6298838;28;20491;-60
2021/05/14 04:34:13;;;;;;;0.90;0.80;;;14.30;92.90;;;;;;6298865;28;20783;-60
2021/05/14 04:37:16;;;;;;;1.53;1.20;;;14.30;92.50;;;;;;6298931;28;20464;-59
2021/05/14 04:40:20;;;;;;;5.07;1.27;;;14.40;92.50;;;;;;6299157;28;20477;-59
2021/05/14 04:43:23;;;;;;;4.40;0.90;;;14.40;92.50;;;;;;6298931;28;20808;-59
2021/05/14 04:46:26;;;;;;;1.77;1.03;;;14.50;92.50;;;;;;6298932;28;20465;-59
2021/05/14 04:49:32;;;;;;;1.90;1.03;;;14.60;92.20;;;;;;6293971;28;20491;-59
2021/05/14 04:52:36;;;;;;;1.37;1.27;;;14.60;92.20;;;;;;6298811;28;20482;-59
2021/05/14 04:55:39;;;;;;;1.00;1.00;;;14.70;92.20;;;;;;6299024;28;20469;-60
2021/05/14 04:58:45;;;;;;;2.10;1.23;;;14.80;92.20;;;;;;6298782;28;20480;-59
2021/05/14 05:01:48;;;;;;;3.93;1.30;;;14.90;92.10;;;;;;6298436;28;20480;-59
2021/05/14 05:04:51;;;;;;;1.83;1.57;;;15.00;91.70;;;;;;6298905;28;20465;-59
2021/05/14 05:07:53;;;;;;;2.40;1.63;;;15.10;92.00;;;;;;6298469;28;20465;-59
2021/05/14 05:10:57;;;;;;;1.20;1.10;;;15.10;91.60;;;;;;6298016;28;20815;-60
2021/05/14 05:14:00;;;;;;;2.40;1.03;;;15.30;91.40;;;;;;6298386;28;20969;-60
2021/05/14 05:17:03;;;;;;;1.20;0.80;;;15.40;91.00;;;;;;6298239;28;20575;-60
2021/05/14 05:20:07;;;;;;;1.97;1.70;;;15.50;90.40;;;;;;6298060;28;20480;-60
2021/05/14 05:23:09;;;;;;;3.27;1.00;;;15.60;90.40;;;;;;6298203;28;20465;-60
2021/05/14 05:26:13;;;;;;;3.20;1.13;;;15.70;90.20;;;;;;6298430;28;20960;-60
2021/05/14 05:29:16;;;;;;;1.67;1.30;;;15.80;90.10;;;;;;6298350;28;20560;-60
2021/05/14 05:32:19;;;;;;;3.67;1.20;;;15.90;89.80;;;;;;6298272;28;20480;-60
2021/05/14 05:35:22;;;;;;;2.23;0.87;;;16.10;89.20;;;;;;6298378;28;20508;-60
2021/05/14 05:38:25;;;;;;;2.30;1.03;;;16.10;88.00;;;;;;6303296;28;20472;-60
2021/05/14 05:41:29;;;;;;;2.63;1.10;;;16.30;88.10;;;;;;6302135;28;20481;-60
2021/05/14 05:44:32;;;;;;;2.00;0.90;;;16.40;87.00;;;;;;6302295;28;20477;-60
2021/05/14 05:47:35;;;;;;;1.13;0.70;;;16.60;86.40;;;;;;6302655;28;20464;-60
2021/05/14 05:50:38;;;;;;;4.40;0.80;;;16.80;85.20;;;;;;6302543;28;20469;-60
2021/05/14 05:53:41;;;;;;;1.17;0.90;;;17.10;83.50;;;;;;6302378;28;20475;-60
2021/05/14 05:56:46;;;;;;;0.97;0.80;;;17.30;83.20;;;;;;6302247;28;20471;-60
2021/05/14 05:59:49;;;;;;;1.33;1.20;;;17.60;82.20;;;;;;6301845;28;20552;-60
2021/05/14 06:02:52;;;;;;;3.90;0.90;;;17.70;80.40;;;;;;6301792;28;20477;-60
2021/05/14 06:05:54;;;;;;;1.53;1.00;;;18.00;78.90;;;;;;6301519;28;20469;-62
2021/05/14 06:08:57;;;;;;;0.93;0.90;;;18.10;74.00;;;;;;6302167;28;20461;-61
2021/05/14 06:12:01;;;;;;;3.23;0.77;;;18.00;73.90;;;;;;6301651;28;20554;-60
2021/05/14 06:15:04;;;;;;;0.80;0.50;;;18.00;73.20;;;;;;6301910;28;20610;-60
2021/05/14 06:18:11;;;;;;;0.80;0.60;;;17.90;72.90;;;;;;6301779;28;20484;-61
2021/05/14 06:21:14;;;;;;;1.70;0.53;;;18.00;72.30;;;;;;6301500;28;20485;-61
2021/05/14 06:24:18;;;;;;;2.37;0.90;;;18.40;71.20;;;;;;6301729;28;20472;-61
2021/05/14 06:27:22;;;;;;;2.53;0.83;;;19.00;69.40;;;;;;6301614;28;20793;-61
2021/05/14 06:30:24;;;;;;;1.10;0.83;;;19.70;66.80;;;;;;6301302;28;20473;-61
2021/05/14 06:33:27;;;;;;;4.10;1.17;;;20.40;64.50;;;;;;6301413;28;20284;-61
2021/05/14 06:36:30;;;;;;;3.53;0.90;;;20.90;62.90;;;;;;6301035;28;20682;-62
2021/05/14 06:39:33;;;;;;;1.67;0.87;;;21.40;60.60;;;;;;6300998;28;20233;-61
2021/05/14 06:42:36;;;;;;;1.57;1.20;;;21.60;59.20;;;;;;6300940;28;20659;-62
2021/05/14 06:45:39;;;;;;;1.50;0.87;;;21.80;58.10;;;;;;6300850;28;20205;-61
2021/05/14 06:48:44;;;;;;;2.07;1.00;;;22.00;56.80;;;;;;6300499;28;20199;-61
2021/05/14 06:51:46;;;;;;;2.77;1.10;;;22.40;57.70;;;;;;6300909;28;20226;-60
2021/05/14 06:54:49;;;;;;;2.40;1.23;;;23.30;56.20;;;;;;6301063;28;20207;-60
2021/05/14 06:57:53;;;;;;;2.97;1.80;;;24.00;53.80;;;;;;6295396;28;20321;-60
2021/05/14 07:00:56;;;;;;;2.17;0.87;;;25.10;51.70;;;;;;6300177;28;20241;-60
2021/05/14 07:03:59;;;;;;;0.77;0.40;;;26.00;46.90;;;;;;6300467;28;20218;-62
2021/05/14 07:07:01;;;;;;;3.27;0.90;;;26.10;43.50;;;;;;6300034;28;20305;-61
2021/05/14 07:10:05;;;;;;;1.77;0.80;;;27.20;40.60;;;;;;6299332;28;20241;-61
2021/05/14 07:13:08;;;;;;;1.03;0.37;;;28.40;38.90;;;;;;6298383;28;20233;-62
2021/05/14 07:16:11;;;;;;;1.20;0.60;;;29.40;36.80;;;;;;6298218;28;20214;-61
2021/05/14 07:19:14;;;;;;;0.80;0.60;;;29.90;35.10;;;;;;6299013;28;20218;-61
2021/05/14 07:22:17;;;;;;;0.70;0.40;;;30.60;33.40;;;;;;6297483;28;20244;-62
2021/05/14 07:25:20;;;;;;;1.27;0.50;;;31.70;31.70;;;;;;6299203;28;20232;-62
2021/05/14 07:28:24;;;;;;;0.70;0.50;;;32.10;29.50;;;;;;6297552;28;20573;-62
2021/05/14 07:31:26;;;;;;;2.60;0.50;;;32.70;29.20;;;;;;6297230;28;20225;-63
2021/05/14 07:34:29;;;;;;;0.60;0.20;;;33.80;27.90;;;;;;6298392;28;20788;-65
2021/05/14 07:37:39;;;;;;;0.70;0.40;;;34.70;26.90;;;;;;6296031;28;20670;-65
2021/05/14 07:40:41;;;;;;;0.90;0.40;;;35.40;26.00;;;;;;6298396;28;20681;-65
2021/05/14 07:43:45;;;;;;;0.50;0.20;;;35.50;25.70;;;;;;6296178;28;20221;-66
2021/05/14 07:46:48;;;;;;;1.13;0.30;;;36.10;24.70;;;;;;6298728;28;20222;-65
2021/05/14 07:49:50;;;;;;;0.88;0.40;;;36.90;24.00;;;;;;6298946;28;20230;-65
2021/05/14 07:52:53;;;;;;;0.73;0.40;;;37.90;23.70;;;;;;6296616;28;20225;-65
2021/05/14 07:55:56;;;;;;;0.68;0.38;;;38.70;22.80;;;;;;6298687;28;20229;-66
2021/05/14 07:59:02;;;;;;;0.85;0.40;;;39.10;21.40;;;;;;6294659;28;20232;-68
2021/05/14 08:02:05;;;;;;;0.60;0.40;;;37.90;21.60;;;;;;6289545;28;20222;-71
2021/05/14 08:05:09;;;;;;;0.77;0.40;;;37.70;22.70;;;;;;6284512;28;20283;-70
2021/05/14 08:08:13;;;;;;;1.17;0.50;;;39.40;21.30;;;;;;6293887;28;20731;-68
2021/05/14 08:11:17;;;;;;;1.77;0.57;;;40.40;20.60;;;;;;6296650;28;20614;-66
2021/05/14 08:14:21;;;;;;;0.60;0.30;;;40.40;20.60;;;;;;6296476;28;20646;-67
2021/05/14 08:17:23;;;;;;;1.77;1.67;;;38.20;20.60;;;;;;6296445;28;20226;-65
2021/05/14 08:20:27;;;;;;;0.60;0.30;;;35.90;22.50;;;;;;6296419;28;20678;-67
2021/05/14 08:23:30;;;;;;;0.77;0.20;;;34.00;23.90;;;;;;6296944;28;20261;-65
2021/05/14 08:26:32;;;;;;;0.80;0.30;;;33.10;24.50;;;;;;6296959;28;20237;-66
2021/05/14 08:29:37;;;;;;;0.80;0.40;;;31.80;24.80;;;;;;6296753;28;20355;-65
2021/05/14 08:32:42;;;;;;;0.83;0.40;;;30.20;26.00;;;;;;6296812;28;20719;-68
2021/05/14 08:35:45;;;;;;;0.60;0.40;;;29.20;27.60;;;;;;6279982;28;20553;-66
2021/05/14 08:38:48;;;;;;;2.30;0.40;;;28.80;27.70;;;;;;6296202;28;20226;-65
2021/05/14 08:41:52;;;;;;;1.20;0.50;;;28.10;28.70;;;;;;6296078;28;20233;-67
2021/05/14 08:44:58;;;;;;;0.90;0.30;;;28.30;29.90;;;;;;6296912;28;20240;-64
2021/05/14 08:48:01;;;;;;;0.60;0.30;;;28.60;29.10;;;;;;6295475;28;20233;-64
2021/05/14 08:51:07;;;;;;;0.70;0.33;;;28.40;28.50;;;;;;6295934;28;20237;-64
2021/05/14 08:54:12;;;;;;;1.60;0.53;;;27.70;29.10;;;;;;6293206;28;20676;-64
2021/05/14 08:57:14;;;;;;;1.20;0.30;;;26.90;30.00;;;;;;6295911;28;20232;-63
2021/05/14 09:00:19;;;;;;;0.90;0.53;;;26.50;30.50;;;;;;6295377;28;20218;-63
2021/05/14 09:03:22;;;;;;;0.70;0.40;;;26.30;31.20;;;;;;6294438;28;20333;-64
2021/05/14 09:06:33;;;;;;;3.27;0.50;;;26.40;32.00;;;;;;6295679;28;20214;-63
2021/05/14 09:09:35;;;;;;;0.90;0.50;;;26.40;31.40;;;;;;6293610;28;20226;-64
2021/05/14 09:12:40;;;;;;;0.80;0.20;;;26.40;31.70;;;;;;6299063;28;20223;-64
2021/05/14 09:15:44;;;;;;;0.60;0.40;;;26.40;31.20;;;;;;6300346;28;20648;-64
2021/05/14 09:18:48;;;;;;;0.90;0.40;;;26.70;31.60;;;;;;6300310;28;20638;-64
2021/05/14 09:22:07;;;;;;;0.57;0.27;;;27.10;31.70;;;;;;6297908;28;21681;-64
2021/05/14 09:25:09;;;;;;;0.63;0.27;;;27.30;30.40;;;;;;6297691;28;20678;-65
2021/05/14 09:28:21;;;;;;;0.60;0.20;;;26.90;31.50;;;;;;6300189;28;20233;-63
2021/05/14 09:31:27;;;;;;;0.60;0.30;;;26.50;31.20;;;;;;6299876;28;20227;-64
2021/05/14 09:34:33;;;;;;;0.60;0.30;;;26.40;31.40;;;;;;6297906;28;20259;-64
2021/05/14 09:37:47;;;;;;;1.23;0.43;;;26.40;31.10;;;;;;6299387;28;20670;-63
2021/05/14 09:40:49;;;;;;;0.70;0.43;;;26.40;31.70;;;;;;6300050;28;20230;-64
2021/05/14 09:43:56;;;;;;;4.20;0.60;;;26.00;31.70;;;;;;6299538;28;20234;-63
2021/05/14 09:47:00;;;;;;;0.70;0.30;;;26.10;32.10;;;;;;6300800;28;20284;-64
2021/05/14 09:50:29;;;;;;;0.60;0.40;;;26.50;32.20;;;;;;6301986;28;20242;-64
2021/05/14 09:53:32;;;;;;;0.60;0.40;;;26.40;31.20;;;;;;6302053;28;20234;-62
2021/05/14 09:56:35;;;;;;;1.27;0.40;;;26.40;31.10;;;;;;6301446;28;20229;-62
2021/05/14 09:59:38;;;;;;;0.80;0.40;;;26.60;31.80;;;;;;6301455;28;20297;-63
2021/05/14 10:02:43;;;;;;;0.70;0.50;;;26.70;31.40;;;;;;6297855;28;20222;-63
2021/05/14 10:05:48;;;;;;;0.57;0.30;;;26.60;31.50;;;;;;6301371;28;20558;-63
2021/05/14 10:08:52;;;;;;;0.70;0.40;;;26.40;31.90;;;;;;6299354;28;20238;-63
2021/05/14 10:11:56;;;;;;;1.07;0.40;;;26.10;31.90;;;;;;6285687;28;20245;-63
2021/05/14 10:15:02;;;;;;;0.60;0.40;;;26.10;32.20;;;;;;6299173;28;20222;-63
2021/05/14 10:18:07;;;;;;;0.60;0.30;;;26.10;31.60;;;;;;6300731;28;20226;-63
2021/05/14 10:21:12;;;;;;;0.80;0.50;;;25.90;31.70;;;;;;6300693;28;20233;-63
2021/05/14 10:24:42;;;;;;;1.07;0.50;;;25.50;32.00;;;;;;6300353;28;20697;-63
2021/05/14 10:27:45;;;;;;;0.60;0.30;;;25.10;32.40;;;;;;6299106;28;20559;-63
2021/05/14 10:31:20;;;;;;;1.03;0.50;;;24.80;32.90;;;;;;6297812;28;20237;-63
2021/05/14 10:34:33;;;;;;;0.60;0.30;;;24.40;33.50;;;;;;6300061;28;20219;-64
2021/05/14 10:37:45;;;;;;;0.70;0.40;;;24.40;34.30;;;;;;6299587;28;20230;-62
2021/05/14 10:40:48;;;;;;;0.63;0.30;;;24.50;34.10;;;;;;6300487;28;20308;-64
2021/05/14 10:44:05;;;;;;;0.63;0.30;;;24.50;33.60;;;;;;6300216;28;20237;-65
2021/05/14 10:47:47;;;;;;;0.87;0.60;;;24.20;34.50;;;;;;6299590;28;20227;-63
2021/05/14 10:50:53;;;;;;;1.03;0.60;;;24.10;34.90;;;;;;6300497;28;20241;-63
2021/05/14 10:53:55;;;;;;;0.87;0.50;;;24.00;35.30;;;;;;6304716;28;20260;-72
2021/05/14 10:56:58;;;;;;;1.07;0.60;;;23.80;36.40;;;;;;6301151;28;20234;-73
2021/05/14 11:00:30;;;;;;;0.70;0.50;;;23.60;36.40;;;;;;6300644;28;20239;-72
2021/05/14 11:03:33;;;;;;;0.80;0.60;;;23.70;36.40;;;;;;6283981;28;20670;-71
2021/05/14 11:06:44;;;;;;;1.90;0.50;;;23.60;36.40;;;;;;6276042;28;20199;-72
2021/05/14 11:10:25;;;;;;;0.93;0.70;;;23.60;36.40;;;;;;6276583;28;20223;-71
2021/05/14 11:13:36;;;;;;;1.23;0.40;;;23.70;36.70;;;;;;6293904;28;20223;-71
2021/05/14 11:16:40;;;;;;;0.60;0.50;;;23.70;37.10;;;;;;6300979;28;20230;-70
2021/05/14 11:19:46;;;;;;;1.10;0.60;;;23.70;36.60;;;;;;6300396;28;20226;-74
2021/05/14 11:22:50;;;;;;;0.50;0.37;;;23.90;36.40;;;;;;6300220;28;20741;-73
2021/05/14 11:25:54;;;;;;;0.70;0.40;;;23.70;35.80;;;;;;6292764;28;20303;-71
2021/05/14 11:28:57;;;;;;;1.07;0.47;;;23.20;36.30;;;;;;6275747;28;20228;-71
2021/05/14 11:32:27;;;;;;;0.60;0.50;;;22.90;37.50;;;;;;6275104;28;20235;-69
2021/05/14 11:35:30;;;;;;;0.70;0.57;;;23.20;37.00;;;;;;6281663;28;20557;-72
2021/05/14 11:38:34;;;;;;;0.60;0.40;;;23.60;37.20;;;;;;6300169;28;20662;-70
2021/05/14 11:41:37;;;;;;;1.07;0.60;;;23.80;36.30;;;;;;6298758;28;20237;-71
2021/05/14 11:44:56;;;;;;;0.90;0.63;;;23.80;36.40;;;;;;6296029;28;20219;-70
2021/05/14 11:48:00;;;;;;;1.03;0.70;;;23.40;37.00;;;;;;6295605;28;20265;-68
2021/05/14 11:51:03;;;;;;;1.13;0.57;;;23.50;37.10;;;;;;6300145;28;20233;-70
2021/05/14 11:54:11;;;;;;;0.60;0.40;;;23.50;37.10;;;;;;6299478;28;20235;-71
2021/05/14 11:57:29;;;;;;;0.60;0.40;;;23.30;37.10;;;;;;6299717;28;20235;-73
2021/05/14 12:00:33;;;;;;;0.80;0.50;;;23.30;37.70;;;;;;6299300;28;20246;-72
2021/05/14 12:03:37;;;;;;;0.97;0.47;;;22.70;38.60;;;;;;6298774;28;20697;-71
2021/05/14 12:06:47;;;;;;;0.70;0.40;;;22.90;38.20;;;;;;6299582;28;20237;-65
2021/05/14 12:09:58;;;;;;;0.67;0.50;;;23.20;38.10;;;;;;6280922;28;20682;-65
2021/05/14 12:13:01;;;;;;;1.00;0.87;;;23.20;38.40;;;;;;6274060;28;20231;-64
2021/05/14 12:16:06;;;;;;;1.27;0.60;;;23.50;37.90;;;;;;6274011;28;20230;-63
2021/05/14 12:19:09;;;;;;;0.70;0.50;;;23.30;36.80;;;;;;6296367;28;20233;-63
2021/05/14 12:22:12;;;;;;;1.47;0.50;;;23.50;37.10;;;;;;6299212;28;20237;-63
2021/05/14 12:25:16;;;;;;;1.73;0.50;;;23.90;36.60;;;;;;6297064;28;20227;-63
2021/05/14 12:28:33;;;;;;;2.20;0.50;;;24.20;36.30;;;;;;6274080;28;20235;-63
2021/05/14 12:31:38;;;;;;;0.70;0.40;;;24.00;36.70;;;;;;6273468;28;20570;-63
2021/05/14 12:34:51;;;;;;;0.70;0.40;;;23.70;36.70;;;;;;6274149;28;20227;-63
2021/05/14 12:37:55;;;;;;;0.60;0.40;;;23.90;37.40;;;;;;6273698;28;20332;-63
2021/05/14 12:40:59;;;;;;;1.27;0.70;;;24.20;36.60;;;;;;6275198;28;20703;-64
2021/05/14 12:44:17;;;;;;;0.90;0.50;;;24.40;36.20;;;;;;6298160;28;20237;-72
2021/05/14 12:47:21;;;;;;;1.40;0.60;;;24.40;36.50;;;;;;6295298;28;20682;-68
2021/05/14 12:50:26;;;;;;;1.47;0.60;;;23.90;38.30;;;;;;6295690;28;20686;-69
2021/05/14 12:53:28;;;;;;;0.70;0.50;;;23.20;39.20;;;;;;6278954;28;20220;-66
2021/05/14 12:56:32;;;;;;;0.83;0.47;;;22.80;40.00;;;;;;6296375;28;20590;-67
2021/05/14 12:59:35;;;;;;;0.60;0.50;;;22.70;41.00;;;;;;6303506;28;20241;-64
2021/05/14 13:02:38;;;;;;;0.93;0.70;;;22.40;41.70;;;;;;6302612;28;20223;-64
2021/05/14 13:05:42;;;;;;;1.57;0.50;;;22.40;40.90;;;;;;6303277;28;20237;-66
2021/05/14 13:09:05;;;;;;;1.23;0.77;;;22.00;41.60;;;;;;6293117;28;20350;-64
2021/05/14 13:12:09;;;;;;;1.03;0.63;;;21.70;42.80;;;;;;6278141;28;20240;-67
2021/05/14 13:15:12;;;;;;;1.60;0.70;;;21.80;42.40;;;;;;6276560;28;20253;-67
2021/05/14 13:18:26;;;;;;;2.40;0.83;;;21.60;42.90;;;;;;6275902;28;20235;-67
2021/05/14 13:21:29;;;;;;;0.80;0.60;;;21.40;43.00;;;;;;6285084;28;20560;-68
2021/05/14 13:24:33;;;;;;;1.07;0.47;;;21.20;43.40;;;;;;6296673;28;20226;-66
2021/05/14 13:27:38;;;;;;;0.80;0.70;;;21.00;44.40;;;;;;6300694;28;20309;-64
2021/05/14 13:30:41;;;;;;;1.00;0.60;;;20.90;44.80;;;;;;6302294;28;20231;-67
2021/05/14 13:33:44;;;;;;;1.97;0.70;;;20.70;45.20;;;;;;6302540;28;20210;-67
2021/05/14 13:36:47;;;;;;;0.73;0.73;;;20.80;45.60;;;;;;6302701;28;20199;-67
2021/05/14 13:39:49;;;;;;;1.37;0.53;;;20.60;47.20;;;;;;6302341;28;20219;-67
2021/05/14 13:42:53;;;;;;;1.30;0.80;;;20.30;47.50;;;;;;6302011;28;20238;-67
2021/05/14 13:45:56;;;;;;;1.13;0.70;;;20.20;48.10;;;;;;6301926;28;20237;-67
2021/05/14 13:48:59;;;;;;;1.37;0.63;;;20.20;48.00;;;;;;6301930;28;20227;-67
2021/05/14 13:52:03;;;;;;;0.80;0.50;;;20.30;48.90;;;;;;6300682;28;20227;-68
2021/05/14 13:55:10;;;;;;;2.07;0.57;;;20.40;48.30;;;;;;6299854;28;20615;-67
2021/05/14 13:58:14;;;;;;;0.83;0.60;;;20.50;48.00;;;;;;6299157;28;20222;-67
2021/05/14 14:01:17;;;;;;;1.63;0.50;;;20.60;48.10;;;;;;6299494;28;20242;-67
2021/05/14 14:04:19;;;;;;;1.80;0.67;;;20.50;48.10;;;;;;6276361;28;20370;-67
2021/05/14 14:07:22;;;;;;;3.67;0.77;;;20.10;50.90;;;;;;6275239;28;20227;-68
2021/05/14 14:10:25;;;;;;;0.80;0.60;;;20.00;52.70;;;;;;6299204;28;20544;-65
2021/05/14 14:13:31;;;;;;;0.83;0.57;;;20.00;52.90;;;;;;6300477;28;20678;-65
2021/05/14 14:16:34;;;;;;;0.90;0.60;;;20.10;53.10;;;;;;6300018;28;20591;-66
2021/05/14 14:19:39;;;;;;;1.33;0.80;;;19.90;53.10;;;;;;6301493;28;20223;-65
2021/05/14 14:22:42;;;;;;;1.83;0.77;;;20.00;53.90;;;;;;6301609;28;20647;-68
2021/05/14 14:25:45;;;;;;;0.60;0.60;;;20.00;54.90;;;;;;6295408;28;20231;-65
2021/05/14 14:28:48;;;;;;;1.30;1.00;;;19.90;55.80;;;;;;6304453;28;20237;-65
2021/05/14 14:31:51;;;;;;;2.17;0.90;;;19.80;57.20;;;;;;6301566;28;20231;-64
2021/05/14 14:34:54;;;;;;;0.77;0.60;;;19.80;58.10;;;;;;6301199;28;20226;-65
2021/05/14 14:38:17;;;;;;;2.27;0.80;;;19.70;58.10;;;;;;6300746;28;20282;-66
2021/05/14 14:41:20;;;;;;;1.20;0.90;;;19.70;58.90;;;;;;6300904;28;20694;-62
2021/05/14 14:44:24;;;;;;;2.97;0.83;;;19.40;59.80;;;;;;6300904;28;20235;-66
2021/05/14 14:47:27;;;;;;;1.30;0.60;;;19.30;60.60;;;;;;6293213;28;20219;-64
2021/05/14 14:50:30;;;;;;;1.23;0.70;;;19.10;62.10;;;;;;6276136;28;20227;-64
2021/05/14 14:53:33;;;;;;;2.30;1.00;;;19.10;62.30;;;;;;6275707;28;20570;-64
2021/05/14 14:56:36;;;;;;;0.73;0.70;;;19.00;62.30;;;;;;6275761;28;20302;-63
2021/05/14 14:59:40;;;;;;;0.60;0.60;;;19.00;62.90;;;;;;6276043;28;20336;-63
2021/05/14 15:02:45;;;;;;;1.00;1.00;;;19.00;62.50;;;;;;6289306;28;20678;-63
2021/05/14 15:05:51;;;;;;;1.93;0.67;;;18.90;63.30;;;;;;6283322;28;20231;-63
2021/05/14 15:08:53;;;;;;;0.93;0.70;;;18.70;64.20;;;;;;6296104;28;20473;-62
2021/05/14 15:11:56;;;;;;;1.60;0.60;;;18.70;64.30;;;;;;6299294;28;20574;-64
2021/05/14 15:15:01;;;;;;;0.80;0.80;;;18.70;65.40;;;;;;6299955;28;20231;-64
2021/05/14 15:18:04;;;;;;;0.83;0.67;;;18.80;64.00;;;;;;6275249;28;20250;-64
2021/05/14 15:21:07;;;;;;;0.97;0.70;;;18.80;62.50;;;;;;6275225;28;20238;-64
2021/05/14 15:24:10;;;;;;;1.43;0.73;;;18.70;65.30;;;;;;6274696;28;20238;-64
2021/05/14 15:27:13;;;;;;;1.27;0.80;;;18.70;65.80;;;;;;6275151;28;20524;-62
2021/05/14 15:30:19;;;;;;;0.77;0.70;;;18.70;66.70;;;;;;6272992;28;20477;-64
2021/05/14 15:33:22;;;;;;;2.10;1.00;;;18.60;66.60;;;;;;6274449;28;20478;-66
2021/05/14 15:36:26;;;;;;;0.60;0.50;;;18.60;66.10;;;;;;6298319;28;20558;-64
2021/05/14 15:39:30;;;;;;;1.13;0.83;;;18.60;65.60;;;;;;6299497;28;20552;-64
2021/05/14 15:42:34;;;;;;;1.37;0.80;;;18.70;65.70;;;;;;6299378;28;20571;-64
2021/05/14 15:45:38;;;;;;;1.20;1.10;;;18.60;66.40;;;;;;6295697;28;20477;-65
2021/05/14 15:48:42;;;;;;;1.50;0.70;;;18.50;67.50;;;;;;6297069;28;20203;-65
2021/05/14 15:51:45;;;;;;;0.83;0.70;;;18.40;69.10;;;;;;6296303;28;20469;-65
2021/05/14 15:54:50;;;;;;;0.90;0.73;;;18.10;70.00;;;;;;6298933;28;20206;-64
2021/05/14 15:57:54;;;;;;;0.70;0.60;;;18.20;71.10;;;;;;6290714;28;20477;-64
2021/05/14 16:00:58;;;;;;;1.33;0.80;;;18.00;71.00;;;;;;6299053;28;20920;-63
2021/05/14 16:04:01;;;;;;;1.17;0.90;;;18.10;72.40;;;;;;6278131;28;20477;-63
2021/05/14 16:07:04;;;;;;;1.03;0.80;;;17.90;72.10;;;;;;6274528;28;20970;-62